createdAt,value
2023-04-16T00:00:19.677Z,1018.31
2023-04-16T00:01:20.043Z,1018.29
2023-04-16T00:02:20.504Z,1018.33
2023-04-16T00:03:20.929Z,1018.30
2023-04-16T00:04:21.178Z,1018.27
2023-04-16T00:05:21.432Z,1018.28
2023-04-16T00:06:21.788Z,1018.32
2023-04-16T00:07:22.132Z,1018.27
2023-04-16T00:08:22.478Z,1018.33
2023-04-16T00:09:22.822Z,1018.32
2023-04-16T00:10:23.160Z,1018.29
2023-04-16T00:11:23.532Z,1018.36
2023-04-16T00:12:23.964Z,1018.35
2023-04-16T00:13:24.202Z,1018.32
2023-04-16T00:14:24.558Z,1018.37
2023-04-16T00:15:24.898Z,1018.36
2023-04-16T00:16:25.306Z,1018.36
2023-04-16T00:17:25.644Z,1018.37
2023-04-16T00:18:25.930Z,1018.32
2023-04-16T00:19:26.282Z,1018.35
2023-04-16T00:20:26.632Z,1018.36
2023-04-16T00:21:27.037Z,1018.39
2023-04-16T00:22:27.340Z,1018.44
2023-04-16T00:23:27.686Z,1018.38
2023-04-16T00:24:28.029Z,1018.40
2023-04-16T00:25:28.363Z,1018.34
2023-04-16T00:26:28.723Z,1018.40
2023-04-16T00:27:29.083Z,1018.37
2023-04-16T00:28:29.410Z,1018.42
2023-04-16T00:29:29.758Z,1018.44
2023-04-16T00:30:30.098Z,1018.46
2023-04-16T00:31:30.695Z,1018.47
2023-04-16T00:32:30.835Z,1018.45
2023-04-16T00:33:31.117Z,1018.49
2023-04-16T00:34:31.456Z,1018.51
2023-04-16T00:35:31.792Z,1018.46
2023-04-16T00:36:32.154Z,1018.48
2023-04-16T00:37:32.751Z,1018.46
2023-04-16T00:38:32.814Z,1018.50
2023-04-16T00:39:33.155Z,1018.51
2023-04-16T00:40:33.493Z,1018.50
2023-04-16T00:41:33.883Z,1018.50
2023-04-16T00:42:34.195Z,1018.53
2023-04-16T00:43:34.533Z,1018.50
2023-04-16T00:44:34.926Z,1018.56
2023-04-16T00:45:35.253Z,1018.56
2023-04-16T00:46:35.655Z,1018.58
2023-04-16T00:47:35.960Z,1018.62
2023-04-16T00:48:36.279Z,1018.55
2023-04-16T00:49:36.620Z,1018.57
2023-04-16T00:50:36.976Z,1018.59
2023-04-16T00:51:37.334Z,1018.63
2023-04-16T00:52:37.682Z,1018.62
2023-04-16T00:53:38.042Z,1018.59
2023-04-16T00:54:38.392Z,1018.60
2023-04-16T00:55:38.746Z,1018.59
2023-04-16T00:56:39.091Z,1018.66
2023-04-16T00:57:39.433Z,1018.65
2023-04-16T00:58:39.785Z,1018.63
2023-04-16T00:59:40.135Z,1018.69
2023-04-16T01:00:40.478Z,1018.61
2023-04-16T01:01:40.919Z,1018.60
2023-04-16T01:02:41.243Z,1018.64
2023-04-16T01:03:41.615Z,1018.66
2023-04-16T01:04:41.904Z,1018.63
2023-04-16T01:05:42.217Z,1018.65
2023-04-16T01:06:42.653Z,1018.64
2023-04-16T01:07:42.911Z,1018.69
2023-04-16T01:08:43.277Z,1018.66
2023-04-16T01:09:43.615Z,1018.73
2023-04-16T01:10:43.972Z,1018.76
2023-04-16T01:11:44.336Z,1018.74
2023-04-16T01:12:44.666Z,1018.77
2023-04-16T01:13:45.020Z,1018.76
2023-04-16T01:14:45.357Z,1018.79
2023-04-16T01:15:45.799Z,1018.82
2023-04-16T01:16:46.076Z,1018.79
2023-04-16T01:17:46.474Z,1018.77
2023-04-16T01:18:46.783Z,1018.81
2023-04-16T01:19:47.135Z,1018.84
2023-04-16T01:20:47.474Z,1018.77
2023-04-16T01:21:47.858Z,1018.82
2023-04-16T01:22:48.159Z,1018.84
2023-04-16T01:23:48.503Z,1018.81
2023-04-16T01:24:48.860Z,1018.87
2023-04-16T01:25:49.187Z,1018.86
2023-04-16T01:26:49.559Z,1018.84
2023-04-16T01:27:49.888Z,1018.90
2023-04-16T01:28:50.225Z,1018.92
2023-04-16T01:29:50.571Z,1018.93
2023-04-16T01:30:50.915Z,1018.89
2023-04-16T01:31:51.384Z,1018.91
2023-04-16T01:32:51.683Z,1018.88
2023-04-16T01:33:51.989Z,1018.93
2023-04-16T01:34:52.330Z,1018.93
2023-04-16T01:35:52.665Z,1018.90
2023-04-16T01:36:53.033Z,1018.88
2023-04-16T01:37:53.370Z,1018.90
2023-04-16T01:38:53.743Z,1018.90
2023-04-16T01:39:54.055Z,1018.86
2023-04-16T01:40:54.401Z,1018.88
2023-04-16T01:41:54.757Z,1018.91
2023-04-16T01:42:55.102Z,1018.87
2023-04-16T01:43:55.450Z,1018.88
2023-04-16T01:44:55.795Z,1018.84
2023-04-16T01:45:56.132Z,1018.87
2023-04-16T01:46:56.526Z,1018.86
2023-04-16T01:47:56.866Z,1018.86
2023-04-16T01:48:57.196Z,1018.91
2023-04-16T01:49:57.532Z,1018.88
2023-04-16T01:50:57.865Z,1018.87
2023-04-16T01:51:58.218Z,1018.94
2023-04-16T01:52:58.567Z,1018.98
2023-04-16T01:53:58.916Z,1018.94
2023-04-16T01:54:59.252Z,1018.91
2023-04-16T01:55:59.617Z,1018.94
2023-04-16T01:56:59.964Z,1018.98
2023-04-16T01:58:00.291Z,1018.94
2023-04-16T01:59:00.656Z,1018.97
2023-04-16T02:00:00.986Z,1018.95
2023-04-16T02:01:01.364Z,1018.96
2023-04-16T02:02:01.759Z,1018.97
2023-04-16T02:03:02.256Z,1018.94
2023-04-16T02:04:02.401Z,1019.00
2023-04-16T02:05:02.740Z,1019.02
2023-04-16T02:06:03.067Z,1018.98
2023-04-16T02:07:03.426Z,1019.03
2023-04-16T02:08:03.761Z,1019.03
2023-04-16T02:09:04.105Z,1019.03
2023-04-16T02:10:04.452Z,1019.02
2023-04-16T02:11:04.782Z,1019.01
2023-04-16T02:12:05.146Z,1019.00
2023-04-16T02:13:05.483Z,1018.96
2023-04-16T02:14:05.834Z,1018.98
2023-04-16T02:15:06.164Z,1018.97
2023-04-16T02:16:06.542Z,1018.99
2023-04-16T02:17:06.886Z,1019.01
2023-04-16T02:18:07.265Z,1019.00
2023-04-16T02:19:07.732Z,1019.02
2023-04-16T02:20:07.931Z,1018.97
2023-04-16T02:21:08.282Z,1018.97
2023-04-16T02:22:08.674Z,1019.00
2023-04-16T02:23:08.990Z,1018.97
2023-04-16T02:24:09.300Z,1019.05
2023-04-16T02:25:09.639Z,1019.01
2023-04-16T02:26:09.996Z,1019.08
2023-04-16T02:27:10.353Z,1019.05
2023-04-16T02:28:10.687Z,1019.05
2023-04-16T02:29:11.264Z,1019.04
2023-04-16T02:30:11.388Z,1019.10
2023-04-16T02:31:11.751Z,1019.05
2023-04-16T02:32:12.137Z,1019.12
2023-04-16T02:33:12.464Z,1019.11
2023-04-16T02:34:12.840Z,1019.14
2023-04-16T02:35:13.148Z,1019.14
2023-04-16T02:36:13.491Z,1019.19
2023-04-16T02:37:13.850Z,1019.13
2023-04-16T02:38:14.178Z,1019.15
2023-04-16T02:39:14.529Z,1019.16
2023-04-16T02:40:14.891Z,1019.16
2023-04-16T02:41:15.247Z,1019.13
2023-04-16T02:42:15.608Z,1019.07
2023-04-16T02:43:15.917Z,1019.16
2023-04-16T02:44:16.265Z,1019.14
2023-04-16T02:45:16.634Z,1019.11
2023-04-16T02:46:17.019Z,1019.18
2023-04-16T02:47:17.352Z,1019.11
2023-04-16T02:48:17.660Z,1019.13
2023-04-16T02:49:17.985Z,1019.14
2023-04-16T02:50:18.335Z,1019.13
2023-04-16T02:51:18.687Z,1019.12
2023-04-16T02:52:19.027Z,1019.15
2023-04-16T02:53:19.369Z,1019.12
2023-04-16T02:54:19.703Z,1019.13
2023-04-16T02:55:20.052Z,1019.17
2023-04-16T02:56:20.435Z,1019.18
2023-04-16T02:57:20.754Z,1019.15
2023-04-16T02:58:21.090Z,1019.13
2023-04-16T02:59:21.450Z,1019.17
2023-04-16T03:00:21.775Z,1019.20
2023-04-16T03:01:22.192Z,1019.21
2023-04-16T03:02:22.569Z,1019.18
2023-04-16T03:03:22.904Z,1019.20
2023-04-16T03:04:23.239Z,1019.21
2023-04-16T03:05:23.581Z,1019.19
2023-04-16T03:06:23.907Z,1019.17
2023-04-16T03:07:24.269Z,1019.18
2023-04-16T03:08:24.603Z,1019.20
2023-04-16T03:09:24.943Z,1019.22
2023-04-16T03:10:25.279Z,1019.22
2023-04-16T03:11:25.627Z,1019.21
2023-04-16T03:12:25.996Z,1019.18
2023-04-16T03:13:26.353Z,1019.22
2023-04-16T03:14:26.697Z,1019.23
2023-04-16T03:15:27.092Z,1019.25
2023-04-16T03:16:27.380Z,1019.22
2023-04-16T03:17:27.760Z,1019.24
2023-04-16T03:18:28.086Z,1019.23
2023-04-16T03:19:28.436Z,1019.26
2023-04-16T03:20:28.765Z,1019.26
2023-04-16T03:21:29.110Z,1019.25
2023-04-16T03:22:29.486Z,1019.31
2023-04-16T03:23:29.793Z,1019.28
2023-04-16T03:24:30.133Z,1019.33
2023-04-16T03:25:30.481Z,1019.29
2023-04-16T03:26:30.846Z,1019.31
2023-04-16T03:27:31.199Z,1019.30
2023-04-16T03:28:31.542Z,1019.35
2023-04-16T03:29:31.873Z,1019.34
2023-04-16T03:30:32.220Z,1019.34
2023-04-16T03:31:32.573Z,1019.33
2023-04-16T03:32:32.945Z,1019.35
2023-04-16T03:33:33.252Z,1019.34
2023-04-16T03:34:33.606Z,1019.34
2023-04-16T03:35:33.963Z,1019.33
2023-04-16T03:36:34.302Z,1019.31
2023-04-16T03:37:34.654Z,1019.31
2023-04-16T03:38:34.999Z,1019.27
2023-04-16T03:39:35.328Z,1019.31
2023-04-16T03:40:35.677Z,1019.29
2023-04-16T03:41:36.012Z,1019.33
2023-04-16T03:42:36.365Z,1019.37
2023-04-16T03:43:36.718Z,1019.30
2023-04-16T03:44:37.060Z,1019.31
2023-04-16T03:45:37.417Z,1019.36
2023-04-16T03:46:37.779Z,1019.40
2023-04-16T03:47:38.188Z,1019.38
2023-04-16T03:48:38.514Z,1019.42
2023-04-16T03:49:38.857Z,1019.42
2023-04-16T03:50:39.186Z,1019.44
2023-04-16T03:51:39.554Z,1019.42
2023-04-16T03:52:39.963Z,1019.42
2023-04-16T03:53:40.183Z,1019.45
2023-04-16T03:54:40.440Z,1019.45
2023-04-16T03:55:40.732Z,1019.39
2023-04-16T03:56:41.016Z,1019.44
2023-04-16T03:57:41.272Z,1019.40
2023-04-16T03:58:41.514Z,1019.42
2023-04-16T03:59:41.807Z,1019.42
2023-04-16T04:00:42.097Z,1019.42
2023-04-16T04:01:42.377Z,1019.41
2023-04-16T04:02:42.853Z,1019.45
2023-04-16T04:03:43.098Z,1019.43
2023-04-16T04:04:43.284Z,1019.45
2023-04-16T04:05:43.503Z,1019.46
2023-04-16T04:06:43.769Z,1019.47
2023-04-16T04:07:44.092Z,1019.42
2023-04-16T04:08:44.336Z,1019.47
2023-04-16T04:09:44.632Z,1019.49
2023-04-16T04:10:44.910Z,1019.49
2023-04-16T04:11:45.202Z,1019.48
2023-04-16T04:12:45.503Z,1019.48
2023-04-16T04:13:45.770Z,1019.47
2023-04-16T04:14:46.029Z,1019.48
2023-04-16T04:15:46.326Z,1019.53
2023-04-16T04:16:46.525Z,1019.44
2023-04-16T04:17:46.870Z,1019.50
2023-04-16T04:18:46.943Z,1019.48
2023-04-16T04:19:58.083Z,1019.47
2023-04-16T04:20:47.380Z,1019.50
2023-04-16T04:21:47.650Z,1019.51
2023-04-16T04:22:47.892Z,1019.54
2023-04-16T04:23:48.105Z,1019.53
2023-04-16T04:24:48.412Z,1019.55
2023-04-16T04:25:48.744Z,1019.56
2023-04-16T04:26:48.984Z,1019.57
2023-04-16T04:27:49.267Z,1019.60
2023-04-16T04:28:49.576Z,1019.59
2023-04-16T04:29:49.828Z,1019.59
2023-04-16T04:30:50.121Z,1019.64
2023-04-16T04:31:50.347Z,1019.61
2023-04-16T04:32:50.761Z,1019.59
2023-04-16T04:33:50.724Z,1019.64
2023-04-16T04:34:50.895Z,1019.65
2023-04-16T04:35:51.180Z,1019.64
2023-04-16T04:36:51.479Z,1019.64
2023-04-16T04:37:51.760Z,1019.61
2023-04-16T04:38:51.945Z,1019.73
2023-04-16T04:39:52.343Z,1019.68
2023-04-16T04:40:52.484Z,1019.66
2023-04-16T04:41:52.772Z,1019.67
2023-04-16T04:42:53.090Z,1019.69
2023-04-16T04:43:53.372Z,1019.72
2023-04-16T04:44:53.672Z,1019.71
2023-04-16T04:45:54.012Z,1019.77
2023-04-16T04:46:54.132Z,1019.77
2023-04-16T04:47:54.485Z,1019.75
2023-04-16T04:48:54.731Z,1019.71
2023-04-16T04:49:55.006Z,1019.75
2023-04-16T04:50:55.303Z,1019.76
2023-04-16T04:51:55.603Z,1019.73
2023-04-16T04:52:55.798Z,1019.75
2023-04-16T04:53:56.225Z,1019.75
2023-04-16T04:54:56.264Z,1019.77
2023-04-16T04:55:58.809Z,1019.76
2023-04-16T04:56:56.710Z,1019.79
2023-04-16T04:57:56.889Z,1019.80
2023-04-16T04:58:57.052Z,1019.83
2023-04-16T04:59:57.218Z,1019.81
2023-04-16T05:00:57.420Z,1019.84
2023-04-16T05:01:57.578Z,1019.83
2023-04-16T05:02:57.920Z,1019.83
2023-04-16T05:03:58.092Z,1019.86
2023-04-16T05:04:58.357Z,1019.88
2023-04-16T05:05:58.621Z,1019.87
2023-04-16T05:06:58.786Z,1019.86
2023-04-16T05:07:58.992Z,1019.92
2023-04-16T05:08:59.121Z,1019.86
2023-04-16T05:09:59.300Z,1019.89
2023-04-16T05:10:59.480Z,1019.91
2023-04-16T05:11:59.639Z,1019.89
2023-04-16T05:12:59.842Z,1019.87
2023-04-16T05:13:59.995Z,1019.95
2023-04-16T05:15:00.210Z,1019.91
2023-04-16T05:16:00.340Z,1019.91
2023-04-16T05:17:00.602Z,1019.94
2023-04-16T05:18:00.865Z,1019.91
2023-04-16T05:19:00.968Z,1019.96
2023-04-16T05:20:01.182Z,1019.96
2023-04-16T05:21:01.325Z,1019.92
2023-04-16T05:22:01.504Z,1019.96
2023-04-16T05:23:01.745Z,1019.95
2023-04-16T05:24:01.973Z,1019.96
2023-04-16T05:25:02.265Z,1020.03
2023-04-16T05:26:02.451Z,1020.05
2023-04-16T05:27:02.609Z,1020.01
2023-04-16T05:28:02.829Z,1020.08
2023-04-16T05:29:03.109Z,1020.07
2023-04-16T05:30:03.280Z,1020.04
2023-04-16T05:31:03.473Z,1020.04
2023-04-16T05:32:03.585Z,1020.06
2023-04-16T05:33:03.908Z,1020.08
2023-04-16T05:34:04.072Z,1020.07
2023-04-16T05:35:04.240Z,1020.06
2023-04-16T05:36:04.403Z,1020.09
2023-04-16T05:37:04.574Z,1020.10
2023-04-16T05:38:04.768Z,1020.11
2023-04-16T05:39:04.907Z,1020.15
2023-04-16T05:40:05.122Z,1020.15
2023-04-16T05:41:05.274Z,1020.17
2023-04-16T05:42:05.434Z,1020.13
2023-04-16T05:43:05.765Z,1020.17
2023-04-16T05:44:05.906Z,1020.14
2023-04-16T05:45:06.091Z,1020.17
2023-04-16T05:46:07.935Z,1020.17
2023-04-16T05:47:06.529Z,1020.25
2023-04-16T05:48:06.711Z,1020.24
2023-04-16T05:49:06.919Z,1020.21
2023-04-16T05:50:07.044Z,1020.24
2023-04-16T05:51:07.222Z,1020.24
2023-04-16T05:52:07.514Z,1020.25
2023-04-16T05:53:07.583Z,1020.24
2023-04-16T05:54:07.850Z,1020.24
2023-04-16T05:55:08.017Z,1020.25
2023-04-16T05:56:08.184Z,1020.26
2023-04-16T05:57:08.512Z,1020.27
2023-04-16T05:58:08.669Z,1020.30
2023-04-16T05:59:09.076Z,1020.30
2023-04-16T06:00:09.027Z,1020.30
2023-04-16T06:01:09.166Z,1020.32
2023-04-16T06:02:09.470Z,1020.31
2023-04-16T06:03:09.719Z,1020.30
2023-04-16T06:04:09.844Z,1020.32
2023-04-16T06:05:10.056Z,1020.33
2023-04-16T06:06:10.143Z,1020.30
2023-04-16T06:07:10.303Z,1020.26
2023-04-16T06:08:10.507Z,1020.26
2023-04-16T06:09:11.025Z,1020.21
2023-04-16T06:10:10.961Z,1020.26
2023-04-16T06:11:11.123Z,1020.24
2023-04-16T06:12:11.314Z,1020.29
2023-04-16T06:13:11.503Z,1020.27
2023-04-16T06:14:11.663Z,1020.25
2023-04-16T06:15:11.842Z,1020.28
2023-04-16T06:16:12.068Z,1020.29
2023-04-16T06:17:12.206Z,1020.31
2023-04-16T06:18:12.421Z,1020.30
2023-04-16T06:19:12.596Z,1020.34
2023-04-16T06:20:12.751Z,1020.32
2023-04-16T06:21:12.925Z,1020.28
2023-04-16T06:22:13.229Z,1020.27
2023-04-16T06:23:13.436Z,1020.36
2023-04-16T06:24:13.699Z,1020.34
2023-04-16T06:25:15.197Z,1020.29
2023-04-16T06:26:14.037Z,1020.29
2023-04-16T06:27:14.336Z,1020.39
2023-04-16T06:28:14.655Z,1020.38
2023-04-16T06:29:14.877Z,1020.37
2023-04-16T06:30:15.128Z,1020.40
2023-04-16T06:31:15.456Z,1020.38
2023-04-16T06:32:15.625Z,1020.41
2023-04-16T06:33:15.848Z,1020.39
2023-04-16T06:34:16.237Z,1020.44
2023-04-16T06:35:16.283Z,1020.46
2023-04-16T06:36:16.597Z,1020.48
2023-04-16T06:37:16.802Z,1020.49
2023-04-16T06:38:16.980Z,1020.53
2023-04-16T06:39:17.123Z,1020.54
2023-04-16T06:40:17.315Z,1020.54
2023-04-16T06:41:17.503Z,1020.53
2023-04-16T06:42:17.787Z,1020.56
2023-04-16T06:43:17.987Z,1020.52
2023-04-16T06:44:18.132Z,1020.55
2023-04-16T06:45:18.431Z,1020.57
2023-04-16T06:46:18.645Z,1020.61
2023-04-16T06:47:18.861Z,1020.62
2023-04-16T06:48:19.106Z,1020.60
2023-04-16T06:49:19.400Z,1020.67
2023-04-16T06:50:19.665Z,1020.59
2023-04-16T06:51:19.860Z,1020.63
2023-04-16T06:52:20.044Z,1020.65
2023-04-16T06:53:20.239Z,1020.68
2023-04-16T06:54:20.516Z,1020.68
2023-04-16T06:55:20.822Z,1020.62
2023-04-16T06:56:21.101Z,1020.64
2023-04-16T06:57:21.404Z,1020.67
2023-04-16T06:58:21.728Z,1020.68
2023-04-16T06:59:22.005Z,1020.67
2023-04-16T07:00:22.302Z,1020.63
2023-04-16T07:01:22.629Z,1020.66
2023-04-16T07:02:23.013Z,1020.68
2023-04-16T07:03:23.473Z,1020.66
2023-04-16T07:04:23.637Z,1020.69
2023-04-16T07:05:23.811Z,1020.62
2023-04-16T07:06:24.094Z,1020.68
2023-04-16T07:07:24.387Z,1020.68
2023-04-16T07:08:24.719Z,1020.71
2023-04-16T07:09:24.993Z,1020.74
2023-04-16T07:10:25.188Z,1020.76
2023-04-16T07:11:25.494Z,1020.74
2023-04-16T07:12:25.656Z,1020.76
2023-04-16T07:13:25.963Z,1020.79
2023-04-16T07:14:26.141Z,1020.78
2023-04-16T07:15:26.326Z,1020.78
2023-04-16T07:16:26.649Z,1020.77
2023-04-16T07:17:26.806Z,1020.76
2023-04-16T07:18:26.984Z,1020.79
2023-04-16T07:19:27.293Z,1020.82
2023-04-16T07:20:28.109Z,1020.84
2023-04-16T07:21:27.751Z,1020.85
2023-04-16T07:22:28.044Z,1020.79
2023-04-16T07:23:28.398Z,1020.81
2023-04-16T07:24:28.653Z,1020.79
2023-04-16T07:25:28.947Z,1020.82
2023-04-16T07:26:29.248Z,1020.86
2023-04-16T07:27:29.544Z,1020.83
2023-04-16T07:28:29.868Z,1020.84
2023-04-16T07:29:30.049Z,1020.90
2023-04-16T07:30:30.336Z,1020.89
2023-04-16T07:31:30.523Z,1020.88
2023-04-16T07:32:30.849Z,1020.91
2023-04-16T07:33:31.006Z,1020.94
2023-04-16T07:34:31.175Z,1020.91
2023-04-16T07:35:31.486Z,1020.94
2023-04-16T07:36:31.775Z,1020.91
2023-04-16T07:37:32.072Z,1020.85
2023-04-16T07:38:32.396Z,1020.87
2023-04-16T07:39:32.665Z,1020.88
2023-04-16T07:40:32.954Z,1020.88
2023-04-16T07:41:33.154Z,1020.88
2023-04-16T07:42:33.447Z,1020.87
2023-04-16T07:43:33.761Z,1020.92
2023-04-16T07:44:33.926Z,1020.94
2023-04-16T07:45:34.258Z,1020.90
2023-04-16T07:46:43.594Z,1020.85
2023-04-16T07:47:34.744Z,1020.93
2023-04-16T07:48:34.910Z,1020.89
2023-04-16T07:49:35.080Z,1020.95
2023-04-16T07:50:35.376Z,1020.88
2023-04-16T07:51:35.675Z,1020.93
2023-04-16T07:52:35.977Z,1020.96
2023-04-16T07:53:36.171Z,1020.94
2023-04-16T07:54:36.321Z,1020.97
2023-04-16T07:55:36.623Z,1021.01
2023-04-16T07:56:36.818Z,1020.95
2023-04-16T07:57:37.177Z,1020.94
2023-04-16T07:58:37.292Z,1020.99
2023-04-16T07:59:37.465Z,1021.01
2023-04-16T08:00:37.641Z,1020.97
2023-04-16T08:01:37.937Z,1021.00
2023-04-16T08:02:38.368Z,1020.98
2023-04-16T08:03:38.634Z,1021.05
2023-04-16T08:04:39.008Z,1021.02
2023-04-16T08:05:39.036Z,1021.01
2023-04-16T08:06:39.360Z,1021.01
2023-04-16T08:07:39.500Z,1021.00
2023-04-16T08:08:39.811Z,1021.02
2023-04-16T08:09:39.988Z,1020.98
2023-04-16T08:10:40.156Z,1020.97
2023-04-16T08:11:40.332Z,1021.04
2023-04-16T08:12:40.529Z,1021.03
2023-04-16T08:13:40.854Z,1021.03
2023-04-16T08:14:41.003Z,1021.08
2023-04-16T08:15:41.352Z,1021.13
2023-04-16T08:16:41.497Z,1021.11
2023-04-16T08:17:41.721Z,1021.11
2023-04-16T08:18:41.969Z,1021.11
2023-04-16T08:19:42.138Z,1021.14
2023-04-16T08:20:42.331Z,1021.13
2023-04-16T08:21:42.497Z,1021.09
2023-04-16T08:22:42.651Z,1021.11
2023-04-16T08:23:42.888Z,1021.17
2023-04-16T08:24:43.028Z,1021.15
2023-04-16T08:25:43.196Z,1021.15
2023-04-16T08:26:43.395Z,1021.20
2023-04-16T08:27:43.610Z,1021.23
2023-04-16T08:28:43.783Z,1021.17
2023-04-16T08:29:43.941Z,1021.17
2023-04-16T08:30:44.125Z,1021.14
2023-04-16T08:31:44.405Z,1021.21
2023-04-16T08:32:44.556Z,1021.18
2023-04-16T08:33:44.715Z,1021.15
2023-04-16T08:34:44.868Z,1021.19
2023-04-16T08:35:45.073Z,1021.18
2023-04-16T08:36:45.234Z,1021.21
2023-04-16T08:37:45.422Z,1021.18
2023-04-16T08:38:45.625Z,1021.19
2023-04-16T08:39:45.776Z,1021.19
2023-04-16T08:40:45.952Z,1021.18
2023-04-16T08:41:46.159Z,1021.17
2023-04-16T08:42:46.344Z,1021.23
2023-04-16T08:43:46.561Z,1021.19
2023-04-16T08:44:48.914Z,1021.25
2023-04-16T08:45:46.914Z,1021.21
2023-04-16T08:46:47.145Z,1021.23
2023-04-16T08:47:47.337Z,1021.24
2023-04-16T08:48:47.495Z,1021.28
2023-04-16T08:49:47.668Z,1021.29
2023-04-16T08:50:47.828Z,1021.28
2023-04-16T08:51:48.021Z,1021.24
2023-04-16T08:52:48.212Z,1021.24
2023-04-16T08:53:48.411Z,1021.26
2023-04-16T08:54:56.622Z,1021.25
2023-04-16T08:55:48.742Z,1021.23
2023-04-16T08:56:48.924Z,1021.21
2023-04-16T08:57:49.115Z,1021.25
2023-04-16T08:58:49.361Z,1021.25
2023-04-16T08:59:49.465Z,1021.34
2023-04-16T09:00:49.692Z,1021.24
2023-04-16T09:01:49.994Z,1021.29
2023-04-16T09:02:50.402Z,1021.29
2023-04-16T09:03:50.352Z,1021.26
2023-04-16T09:04:50.470Z,1021.35
2023-04-16T09:05:50.632Z,1021.29
2023-04-16T09:06:50.823Z,1021.34
2023-04-16T09:07:51.012Z,1021.30
2023-04-16T09:08:51.177Z,1021.29
2023-04-16T09:09:51.335Z,1021.35
2023-04-16T09:10:51.553Z,1021.32
2023-04-16T09:11:51.695Z,1021.31
2023-04-16T09:12:51.880Z,1021.32
2023-04-16T09:13:52.084Z,1021.34
2023-04-16T09:14:52.235Z,1021.29
2023-04-16T09:15:52.464Z,1021.34
2023-04-16T09:16:52.702Z,1021.32
2023-04-16T09:17:52.894Z,1021.35
2023-04-16T09:18:52.981Z,1021.35
2023-04-16T09:19:53.126Z,1021.38
2023-04-16T09:20:53.339Z,1021.41
2023-04-16T09:21:53.514Z,1021.39
2023-04-16T09:22:53.703Z,1021.35
2023-04-16T09:23:53.940Z,1021.36
2023-04-16T09:24:54.100Z,1021.36
2023-04-16T09:25:54.283Z,1021.32
2023-04-16T09:26:54.481Z,1021.39
2023-04-16T09:27:54.678Z,1021.36
2023-04-16T09:28:54.886Z,1021.33
2023-04-16T09:29:55.054Z,1021.39
2023-04-16T09:30:55.260Z,1021.38
2023-04-16T09:31:55.520Z,1021.38
2023-04-16T09:32:55.651Z,1021.37
2023-04-16T09:33:55.851Z,1021.43
2023-04-16T09:34:56.037Z,1021.39
2023-04-16T09:35:56.216Z,1021.47
2023-04-16T09:36:56.423Z,1021.38
2023-04-16T09:37:56.596Z,1021.44
2023-04-16T09:38:57.712Z,1021.44
2023-04-16T09:39:56.993Z,1021.46
2023-04-16T09:40:57.161Z,1021.46
2023-04-16T09:41:57.354Z,1021.45
2023-04-16T09:42:57.575Z,1021.47
2023-04-16T09:43:57.747Z,1021.43
2023-04-16T09:45:00.308Z,1021.52
2023-04-16T09:45:58.123Z,1021.46
2023-04-16T09:46:58.265Z,1021.51
2023-04-16T09:47:58.496Z,1021.49
2023-04-16T09:48:58.641Z,1021.51
2023-04-16T09:49:58.800Z,1021.50
2023-04-16T09:50:59.018Z,1021.53
2023-04-16T09:51:59.212Z,1021.53
2023-04-16T09:52:59.396Z,1021.55
2023-04-16T09:53:59.600Z,1021.56
2023-04-16T09:54:59.787Z,1021.55
2023-04-16T09:55:59.966Z,1021.57
2023-04-16T09:57:00.182Z,1021.52
2023-04-16T09:58:00.383Z,1021.44
2023-04-16T09:59:00.566Z,1021.49
2023-04-16T10:00:00.724Z,1021.51
2023-04-16T10:01:00.927Z,1021.56
2023-04-16T10:02:14.369Z,1021.55
2023-04-16T10:03:01.431Z,1021.53
2023-04-16T10:04:01.701Z,1021.58
2023-04-16T10:05:01.798Z,1021.57
2023-04-16T10:06:02.029Z,1021.52
2023-04-16T10:07:02.137Z,1021.63
2023-04-16T10:08:02.336Z,1021.55
2023-04-16T10:09:02.533Z,1021.59
2023-04-16T10:10:02.781Z,1021.55
2023-04-16T10:11:02.961Z,1021.63
2023-04-16T10:12:03.146Z,1021.60
2023-04-16T10:13:03.360Z,1021.62
2023-04-16T10:14:03.562Z,1021.60
2023-04-16T10:15:03.754Z,1021.67
2023-04-16T10:16:03.954Z,1021.62
2023-04-16T10:17:04.453Z,1021.61
2023-04-16T10:18:04.390Z,1021.66
2023-04-16T10:19:04.578Z,1021.69
2023-04-16T10:20:04.796Z,1021.67
2023-04-16T10:21:04.937Z,1021.71
2023-04-16T10:22:05.148Z,1021.72
2023-04-16T10:23:05.319Z,1021.69
2023-04-16T10:24:05.505Z,1021.69
2023-04-16T10:25:05.686Z,1021.69
2023-04-16T10:26:05.906Z,1021.72
2023-04-16T10:27:06.119Z,1021.73
2023-04-16T10:28:06.279Z,1021.75
2023-04-16T10:29:06.441Z,1021.72
2023-04-16T10:30:06.640Z,1021.74
2023-04-16T10:31:06.898Z,1021.77
2023-04-16T10:32:07.028Z,1021.76
2023-04-16T10:33:07.231Z,1021.80
2023-04-16T10:34:07.367Z,1021.75
2023-04-16T10:35:07.623Z,1021.84
2023-04-16T10:36:08.204Z,1021.77
2023-04-16T10:37:07.991Z,1021.81
2023-04-16T10:38:08.122Z,1021.85
2023-04-16T10:39:08.360Z,1021.81
2023-04-16T10:40:08.550Z,1021.82
2023-04-16T10:41:08.657Z,1021.82
2023-04-16T10:42:08.869Z,1021.79
2023-04-16T10:43:09.055Z,1021.84
2023-04-16T10:44:09.256Z,1021.82
2023-04-16T10:45:09.407Z,1021.87
2023-04-16T10:46:09.673Z,1021.85
2023-04-16T10:47:09.782Z,1021.84
2023-04-16T10:48:10.091Z,1021.88
2023-04-16T10:49:10.211Z,1021.81
2023-04-16T10:50:10.305Z,1021.79
2023-04-16T10:51:10.504Z,1021.83
2023-04-16T10:52:10.702Z,1021.82
2023-04-16T10:53:10.856Z,1021.81
2023-04-16T10:54:11.054Z,1021.82
2023-04-16T10:55:11.242Z,1021.82
2023-04-16T10:56:11.447Z,1021.87
2023-04-16T10:57:11.669Z,1021.84
2023-04-16T10:58:11.822Z,1021.78
2023-04-16T10:59:12.126Z,1021.79
2023-04-16T11:00:12.212Z,1021.89
2023-04-16T11:01:12.443Z,1021.83
2023-04-16T11:02:12.646Z,1021.84
2023-04-16T11:03:12.888Z,1021.79
2023-04-16T11:04:13.108Z,1021.83
2023-04-16T11:05:13.144Z,1021.83
2023-04-16T11:06:13.324Z,1021.84
2023-04-16T11:07:13.529Z,1021.82
2023-04-16T11:08:13.688Z,1021.85
2023-04-16T11:09:13.952Z,1021.84
2023-04-16T11:10:14.080Z,1021.81
2023-04-16T11:11:14.279Z,1021.78
2023-04-16T11:12:14.479Z,1021.82
2023-04-16T11:13:14.621Z,1021.81
2023-04-16T11:14:14.812Z,1021.84
2023-04-16T11:15:15.001Z,1021.87
2023-04-16T11:16:15.205Z,1021.89
2023-04-16T11:17:15.382Z,1021.85
2023-04-16T11:18:15.550Z,1021.90
2023-04-16T11:19:15.706Z,1021.92
2023-04-16T11:20:19.568Z,1021.87
2023-04-16T11:21:16.062Z,1021.86
2023-04-16T11:22:16.269Z,1021.91
2023-04-16T11:23:16.454Z,1021.98
2023-04-16T11:24:16.649Z,1021.92
2023-04-16T11:25:16.876Z,1021.91
2023-04-16T11:26:17.002Z,1021.94
2023-04-16T11:27:17.256Z,1021.90
2023-04-16T11:28:17.376Z,1021.90
2023-04-16T11:29:17.605Z,1021.93
2023-04-16T11:30:17.744Z,1021.95
2023-04-16T11:31:17.965Z,1021.93
2023-04-16T11:32:18.172Z,1021.97
2023-04-16T11:33:18.292Z,1021.95
2023-04-16T11:34:18.483Z,1021.96
2023-04-16T11:35:18.673Z,1022.00
2023-04-16T11:36:18.854Z,1021.96
2023-04-16T11:37:19.096Z,1022.02
2023-04-16T11:38:19.221Z,1021.96
2023-04-16T11:39:19.432Z,1022.02
2023-04-16T11:40:19.588Z,1022.06
2023-04-16T11:41:19.794Z,1022.02
2023-04-16T11:42:20.005Z,1022.08
2023-04-16T11:43:20.129Z,1022.06
2023-04-16T11:44:20.316Z,1022.08
2023-04-16T11:45:20.496Z,1022.10
2023-04-16T11:46:27.341Z,1022.08
2023-04-16T11:47:20.979Z,1022.09
2023-04-16T11:48:21.095Z,1022.13
2023-04-16T11:49:21.248Z,1022.17
2023-04-16T11:50:21.427Z,1022.19
2023-04-16T11:51:21.607Z,1022.12
2023-04-16T11:52:21.906Z,1022.22
2023-04-16T11:53:21.995Z,1022.15
2023-04-16T11:54:22.189Z,1022.16
2023-04-16T11:55:22.387Z,1022.13
2023-04-16T11:56:22.546Z,1022.13
2023-04-16T11:57:22.753Z,1022.19
2023-04-16T11:58:22.931Z,1022.24
2023-04-16T11:59:23.201Z,1022.25
2023-04-16T12:00:24.894Z,1022.24
2023-04-16T12:01:23.448Z,1022.24
2023-04-16T12:02:23.760Z,1022.28
2023-04-16T12:03:24.003Z,1022.26
2023-04-16T12:04:24.086Z,1022.25
2023-04-16T12:05:24.175Z,1022.26
2023-04-16T12:06:24.529Z,1022.25
2023-04-16T12:07:24.562Z,1022.26
2023-04-16T12:08:24.713Z,1022.28